TimeEDT,TemperatureF,Dew PointF,Humidity,Sea Level PressureIn,VisibilityMPH,Wind Direction,Wind SpeedMPH,Gust SpeedMPH,PrecipitationIn,Events,Conditions,WindDirDegrees,DateUTC
12:53 AM,39.9,30.0,68,30.28,10.0,Calm,Calm,-,N/A,,Clear,0,2013-03-10 05:53:00
1:53 AM,37.9,32.0,79,30.27,10.0,North,3.5,-,N/A,,Clear,10,2013-03-10 06:53:00
3:53 AM,35.1,30.9,85,30.25,10.0,NNE,4.6,-,N/A,,Clear,20,2013-03-10 07:53:00
5:53 AM,37.9,32.0,79,30.27,10.0,NW,3.5,-,N/A,,Clear,310,2013-03-10 09:53:00
6:53 AM,37.0,30.9,79,30.27,10.0,North,3.5,-,N/A,,Clear,10,2013-03-10 10:53:00
7:53 AM,32.0,28.9,88,30.27,10.0,NE,5.8,-,N/A,,Clear,40,2013-03-10 11:53:00
8:53 AM,41.0,35.1,79,30.29,10.0,NNE,3.5,-,N/A,,Clear,30,2013-03-10 12:53:00
9:53 AM,50.0,30.0,46,30.30,10.0,ESE,4.6,-,N/A,,Clear,110,2013-03-10 13:53:00
10:53 AM,54.0,25.0,33,30.32,10.0,ESE,3.5,-,N/A,,Clear,120,2013-03-10 14:53:00
11:53 AM,59.0,23.0,25,30.30,10.0,ESE,4.6,-,N/A,,Clear,120,2013-03-10 15:53:00
12:53 PM,62.1,19.0,19,30.28,10.0,Variable,3.5,-,N/A,,Clear,0,2013-03-10 16:53:00
1:53 PM,66.0,17.1,15,30.25,10.0,East,8.1,-,N/A,,Clear,100,2013-03-10 17:53:00
2:53 PM,66.9,16.0,14,30.22,10.0,Variable,5.8,-,N/A,,Clear,0,2013-03-10 18:53:00
3:53 PM,68.0,16.0,14,30.21,10.0,Calm,Calm,-,N/A,,Clear,0,2013-03-10 19:53:00
4:53 PM,69.1,12.9,11,30.19,10.0,ESE,8.1,-,N/A,,Clear,110,2013-03-10 20:53:00
5:53 PM,68.0,14.0,12,30.19,10.0,SE,10.4,-,N/A,,Clear,140,2013-03-10 21:53:00
6:53 PM,64.0,18.0,17,30.20,10.0,ESE,4.6,-,N/A,,Clear,120,2013-03-10 22:53:00
7:53 PM,57.9,19.9,23,30.21,10.0,Calm,Calm,-,N/A,,Clear,0,2013-03-10 23:53:00
8:53 PM,57.0,19.9,24,30.21,10.0,SSE,10.4,-,N/A,,Clear,150,2013-03-11 00:53:00
10:53 PM,52.0,16.0,24,30.24,10.0,South,4.6,-,N/A,,Clear,170,2013-03-11 02:53:00
11:53 PM,48.9,17.1,28,30.24,10.0,SSE,4.6,-,N/A,,Clear,160,2013-03-11 03:53:00
12:53 AM,46.0,19.9,35,30.22,10.0,South,3.5,-,N/A,,Clear,170,2013-03-11 04:53:00